sensor_id;sensor_type;location;lat;lon;timestamp;P1;durP1;ratioP1;P2;durP2;ratioP2
57778;SDS011;43608;49.486;9.640;2023-07-08T00:00:28;7.43;;;5.20;;
57778;SDS011;43608;49.486;9.640;2023-07-08T00:00:58;6.60;;;5.00;;
57778;SDS011;43608;49.486;9.640;2023-07-08T00:01:29;6.15;;;4.90;;
57778;SDS011;43608;49.486;9.640;2023-07-08T00:01:59;6.32;;;4.90;;
57778;SDS011;43608;49.486;9.640;2023-07-08T00:02:30;5.88;;;4.45;;
57778;SDS011;43608;49.486;9.640;2023-07-08T00:03:00;6.20;;;4.80;;
57778;SDS011;43608;49.486;9.640;2023-07-08T00:03:30;6.05;;;4.47;;
57778;SDS011;43608;49.486;9.640;2023-07-08T00:04:01;6.38;;;5.07;;
57778;SDS011;43608;49.486;9.640;2023-07-08T00:04:33;6.53;;;4.80;;
57778;SDS011;43608;49.486;9.640;2023-07-08T00:05:04;5.55;;;4.35;;
57778;SDS011;43608;49.486;9.640;2023-07-08T00:05:34;5.97;;;4.57;;
57778;SDS011;43608;49.486;9.640;2023-07-08T00:06:22;6.50;;;4.85;;
57778;SDS011;43608;49.486;9.640;2023-07-08T00:06:55;6.63;;;4.70;;
57778;SDS011;43608;49.486;9.640;2023-07-08T00:07:26;6.65;;;4.97;;
57778;SDS011;43608;49.486;9.640;2023-07-08T00:07:56;7.18;;;4.97;;
57778;SDS011;43608;49.486;9.640;2023-07-08T00:08:27;6.47;;;4.55;;
57778;SDS011;43608;49.486;9.640;2023-07-08T00:08:57;6.40;;;4.85;;
57778;SDS011;43608;49.486;9.640;2023-07-08T00:09:27;6.25;;;4.57;;
57778;SDS011;43608;49.486;9.640;2023-07-08T00:09:58;5.60;;;4.50;;
57778;SDS011;43608;49.486;9.640;2023-07-08T00:10:29;5.93;;;4.20;;
57778;SDS011;43608;49.486;9.640;2023-07-08T00:10:59;6.05;;;4.38;;
57778;SDS011;43608;49.486;9.640;2023-07-08T00:11:30;6.03;;;4.63;;
57778;SDS011;43608;49.486;9.640;2023-07-08T00:12:00;6.28;;;4.70;;
57778;SDS011;43608;49.486;9.640;2023-07-08T00:12:30;6.20;;;4.80;;
57778;SDS011;43608;49.486;9.640;2023-07-08T00:13:00;6.35;;;4.85;;
57778;SDS011;43608;49.486;9.640;2023-07-08T00:13:31;6.05;;;4.57;;
57778;SDS011;43608;49.486;9.640;2023-07-08T00:14:01;7.20;;;4.80;;
57778;SDS011;43608;49.486;9.640;2023-07-08T00:14:31;6.43;;;5.03;;
57778;SDS011;43608;49.486;9.640;2023-07-08T00:15:02;6.82;;;4.88;;
57778;SDS011;43608;49.486;9.640;2023-07-08T00:15:32;6.35;;;4.93;;
57778;SDS011;43608;49.486;9.640;2023-07-08T00:16:03;6.20;;;4.82;;
57778;SDS011;43608;49.486;9.640;2023-07-08T00:16:33;6.43;;;4.90;;
57778;SDS011;43608;49.486;9.640;2023-07-08T00:17:08;6.07;;;4.95;;
57778;SDS011;43608;49.486;9.640;2023-07-08T00:17:42;6.85;;;5.00;;
57778;SDS011;43608;49.486;9.640;2023-07-08T00:18:14;6.30;;;4.88;;
57778;SDS011;43608;49.486;9.640;2023-07-08T00:18:46;5.80;;;4.40;;
57778;SDS011;43608;49.486;9.640;2023-07-08T00:19:18;6.20;;;4.60;;
57778;SDS011;43608;49.486;9.640;2023-07-08T00:19:49;6.20;;;4.82;;
57778;SDS011;43608;49.486;9.640;2023-07-08T00:20:27;6.32;;;4.63;;
57778;SDS011;43608;49.486;9.640;2023-07-08T00:21:13;5.95;;;4.50;;
57778;SDS011;43608;49.486;9.640;2023-07-08T00:21:45;5.45;;;4.32;;
57778;SDS011;43608;49.486;9.640;2023-07-08T00:22:16;6.95;;;4.60;;
57778;SDS011;43608;49.486;9.640;2023-07-08T00:22:46;6.07;;;4.32;;
57778;SDS011;43608;49.486;9.640;2023-07-08T00:23:19;5.90;;;4.35;;
57778;SDS011;43608;49.486;9.640;2023-07-08T00:23:51;5.97;;;4.32;;
57778;SDS011;43608;49.486;9.640;2023-07-08T00:24:22;6.57;;;4.78;;
57778;SDS011;43608;49.486;9.640;2023-07-08T00:24:53;5.97;;;4.57;;
57778;SDS011;43608;49.486;9.640;2023-07-08T00:25:23;5.72;;;4.30;;
57778;SDS011;43608;49.486;9.640;2023-07-08T00:25:54;5.43;;;4.28;;
57778;SDS011;43608;49.486;9.640;2023-07-08T00:26:25;5.75;;;4.75;;
57778;SDS011;43608;49.486;9.640;2023-07-08T00:26:57;5.70;;;4.47;;
57778;SDS011;43608;49.486;9.640;2023-07-08T00:27:27;6.15;;;4.78;;
57778;SDS011;43608;49.486;9.640;2023-07-08T00:27:58;6.30;;;4.95;;
57778;SDS011;43608;49.486;9.640;2023-07-08T00:28:28;5.30;;;4.40;;
57778;SDS011;43608;49.486;9.640;2023-07-08T00:28:59;5.82;;;4.35;;
57778;SDS011;43608;49.486;9.640;2023-07-08T00:29:29;6.45;;;4.90;;
57778;SDS011;43608;49.486;9.640;2023-07-08T00:29:59;5.93;;;4.57;;
57778;SDS011;43608;49.486;9.640;2023-07-08T00:30:33;5.93;;;4.53;;
57778;SDS011;43608;49.486;9.640;2023-07-08T00:31:08;5.68;;;4.53;;
57778;SDS011;43608;49.486;9.640;2023-07-08T00:31:39;6.15;;;4.70;;
57778;SDS011;43608;49.486;9.640;2023-07-08T00:32:14;6.32;;;4.65;;
57778;SDS011;43608;49.486;9.640;2023-07-08T00:32:45;6.10;;;4.30;;
57778;SDS011;43608;49.486;9.640;2023-07-08T00:33:16;5.78;;;4.53;;
57778;SDS011;43608;49.486;9.640;2023-07-08T00:33:47;6.32;;;4.43;;
57778;SDS011;43608;49.486;9.640;2023-07-08T00:34:17;5.63;;;4.20;;
57778;SDS011;43608;49.486;9.640;2023-07-08T00:34:47;7.05;;;4.75;;
57778;SDS011;43608;49.486;9.640;2023-07-08T00:35:18;6.38;;;4.90;;
57778;SDS011;43608;49.486;9.640;2023-07-08T00:35:48;6.10;;;4.50;;
57778;SDS011;43608;49.486;9.640;2023-07-08T00:36:19;5.90;;;4.10;;
57778;SDS011;43608;49.486;9.640;2023-07-08T00:36:49;6.63;;;4.80;;
57778;SDS011;43608;49.486;9.640;2023-07-08T00:37:19;6.13;;;4.75;;
57778;SDS011;43608;49.486;9.640;2023-07-08T00:37:50;6.03;;;4.55;;
57778;SDS011;43608;49.486;9.640;2023-07-08T00:38:31;5.95;;;4.60;;
57778;SDS011;43608;49.486;9.640;2023-07-08T00:39:02;6.25;;;4.75;;
57778;SDS011;43608;49.486;9.640;2023-07-08T00:39:32;5.88;;;4.60;;
57778;SDS011;43608;49.486;9.640;2023-07-08T00:41:39;6.68;;;4.43;;
57778;SDS011;43608;49.486;9.640;2023-07-08T00:42:18;6.07;;;4.68;;
57778;SDS011;43608;49.486;9.640;2023-07-08T00:42:51;6.18;;;4.60;;
57778;SDS011;43608;49.486;9.640;2023-07-08T00:43:24;6.90;;;4.50;;
57778;SDS011;43608;49.486;9.640;2023-07-08T00:44:10;5.88;;;4.50;;
57778;SDS011;43608;49.486;9.640;2023-07-08T00:44:41;5.75;;;4.18;;
57778;SDS011;43608;49.486;9.640;2023-07-08T00:45:15;6.00;;;4.47;;
57778;SDS011;43608;49.486;9.640;2023-07-08T00:45:53;5.93;;;4.70;;
57778;SDS011;43608;49.486;9.640;2023-07-08T00:46:48;6.40;;;4.35;;
57778;SDS011;43608;49.486;9.640;2023-07-08T00:47:34;6.03;;;4.05;;
57778;SDS011;43608;49.486;9.640;2023-07-08T00:48:06;6.25;;;4.50;;
57778;SDS011;43608;49.486;9.640;2023-07-08T00:48:42;6.00;;;4.35;;
57778;SDS011;43608;49.486;9.640;2023-07-08T00:49:32;6.20;;;4.45;;
57778;SDS011;43608;49.486;9.640;2023-07-08T00:50:10;5.80;;;4.25;;
57778;SDS011;43608;49.486;9.640;2023-07-08T00:50:41;7.35;;;4.95;;
57778;SDS011;43608;49.486;9.640;2023-07-08T00:51:12;5.90;;;4.80;;
57778;SDS011;43608;49.486;9.640;2023-07-08T00:51:42;5.93;;;4.40;;
57778;SDS011;43608;49.486;9.640;2023-07-08T00:53:51;6.40;;;4.60;;
57778;SDS011;43608;49.486;9.640;2023-07-08T00:54:21;8.32;;;5.32;;
57778;SDS011;43608;49.486;9.640;2023-07-08T00:54:52;6.63;;;5.10;;
57778;SDS011;43608;49.486;9.640;2023-07-08T00:55:25;7.75;;;5.20;;
57778;SDS011;43608;49.486;9.640;2023-07-08T00:56:02;6.03;;;4.65;;
57778;SDS011;43608;49.486;9.640;2023-07-08T00:56:40;6.65;;;4.60;;
57778;SDS011;43608;49.486;9.640;2023-07-08T00:57:11;6.80;;;5.00;;
57778;SDS011;43608;49.486;9.640;2023-07-08T00:57:42;5.95;;;4.57;;
57778;SDS011;43608;49.486;9.640;2023-07-08T00:58:17;6.45;;;4.70;;
57778;SDS011;43608;49.486;9.640;2023-07-08T00:58:52;6.65;;;4.88;;
57778;SDS011;43608;49.486;9.640;2023-07-08T00:59:39;6.40;;;4.60;;
57778;SDS011;43608;49.486;9.640;2023-07-08T01:00:17;5.38;;;4.15;;
57778;SDS011;43608;49.486;9.640;2023-07-08T01:00:48;6.70;;;4.32;;
57778;SDS011;43608;49.486;9.640;2023-07-08T01:01:21;5.88;;;4.50;;
57778;SDS011;43608;49.486;9.640;2023-07-08T01:01:51;6.38;;;4.65;;
57778;SDS011;43608;49.486;9.640;2023-07-08T01:02:24;6.82;;;4.60;;
57778;SDS011;43608;49.486;9.640;2023-07-08T01:02:56;5.68;;;4.40;;
57778;SDS011;43608;49.486;9.640;2023-07-08T01:03:27;6.28;;;4.63;;
57778;SDS011;43608;49.486;9.640;2023-07-08T01:04:03;6.95;;;5.10;;
57778;SDS011;43608;49.486;9.640;2023-07-08T01:04:44;6.13;;;4.47;;
57778;SDS011;43608;49.486;9.640;2023-07-08T01:05:28;6.22;;;4.78;;
57778;SDS011;43608;49.486;9.640;2023-07-08T01:06:00;7.30;;;5.25;;
57778;SDS011;43608;49.486;9.640;2023-07-08T01:06:31;6.80;;;5.18;;
57778;SDS011;43608;49.486;9.640;2023-07-08T01:07:04;6.53;;;5.00;;
57778;SDS011;43608;49.486;9.640;2023-07-08T01:07:38;6.68;;;5.25;;
57778;SDS011;43608;49.486;9.640;2023-07-08T01:08:12;6.15;;;4.60;;
57778;SDS011;43608;49.486;9.640;2023-07-08T01:08:42;6.65;;;4.95;;
57778;SDS011;43608;49.486;9.640;2023-07-08T01:09:13;6.40;;;4.93;;
57778;SDS011;43608;49.486;9.640;2023-07-08T01:09:45;6.10;;;4.25;;
57778;SDS011;43608;49.486;9.640;2023-07-08T01:10:17;5.82;;;4.70;;
57778;SDS011;43608;49.486;9.640;2023-07-08T01:10:53;6.00;;;4.53;;
57778;SDS011;43608;49.486;9.640;2023-07-08T01:11:29;5.45;;;4.45;;
57778;SDS011;43608;49.486;9.640;2023-07-08T01:12:01;5.75;;;4.20;;
57778;SDS011;43608;49.486;9.640;2023-07-08T01:12:35;6.50;;;4.57;;
57778;SDS011;43608;49.486;9.640;2023-07-08T01:13:08;6.45;;;4.80;;
57778;SDS011;43608;49.486;9.640;2023-07-08T01:13:42;6.10;;;4.60;;
57778;SDS011;43608;49.486;9.640;2023-07-08T01:14:14;6.38;;;4.60;;
57778;SDS011;43608;49.486;9.640;2023-07-08T01:14:50;6.32;;;4.50;;
57778;SDS011;43608;49.486;9.640;2023-07-08T01:15:25;5.15;;;4.25;;
57778;SDS011;43608;49.486;9.640;2023-07-08T01:16:01;6.30;;;4.70;;
57778;SDS011;43608;49.486;9.640;2023-07-08T01:16:33;6.40;;;4.97;;
57778;SDS011;43608;49.486;9.640;2023-07-08T01:17:03;6.80;;;4.72;;
57778;SDS011;43608;49.486;9.640;2023-07-08T01:17:34;5.82;;;4.80;;
57778;SDS011;43608;49.486;9.640;2023-07-08T01:18:05;6.13;;;4.55;;
57778;SDS011;43608;49.486;9.640;2023-07-08T01:18:36;6.70;;;4.90;;
57778;SDS011;43608;49.486;9.640;2023-07-08T01:19:10;6.00;;;4.68;;
57778;SDS011;43608;49.486;9.640;2023-07-08T01:19:45;6.38;;;4.63;;
57778;SDS011;43608;49.486;9.640;2023-07-08T01:20:16;6.85;;;5.00;;
57778;SDS011;43608;49.486;9.640;2023-07-08T01:20:47;6.50;;;4.65;;
57778;SDS011;43608;49.486;9.640;2023-07-08T01:22:05;6.38;;;4.60;;
57778;SDS011;43608;49.486;9.640;2023-07-08T01:22:37;6.03;;;4.43;;
57778;SDS011;43608;49.486;9.640;2023-07-08T01:23:11;6.63;;;4.97;;
57778;SDS011;43608;49.486;9.640;2023-07-08T01:23:42;6.18;;;4.70;;
57778;SDS011;43608;49.486;9.640;2023-07-08T01:24:12;6.45;;;4.68;;
57778;SDS011;43608;49.486;9.640;2023-07-08T01:24:43;6.60;;;4.65;;
57778;SDS011;43608;49.486;9.640;2023-07-08T01:25:15;7.07;;;5.20;;
57778;SDS011;43608;49.486;9.640;2023-07-08T01:25:45;6.20;;;4.78;;
57778;SDS011;43608;49.486;9.640;2023-07-08T01:26:17;6.57;;;5.00;;
57778;SDS011;43608;49.486;9.640;2023-07-08T01:26:47;6.40;;;5.00;;
57778;SDS011;43608;49.486;9.640;2023-07-08T01:27:18;6.22;;;4.60;;
57778;SDS011;43608;49.486;9.640;2023-07-08T01:27:54;6.20;;;4.68;;
57778;SDS011;43608;49.486;9.640;2023-07-08T01:28:27;7.18;;;5.03;;
57778;SDS011;43608;49.486;9.640;2023-07-08T01:28:58;6.95;;;4.80;;
57778;SDS011;43608;49.486;9.640;2023-07-08T01:29:29;6.88;;;5.07;;
57778;SDS011;43608;49.486;9.640;2023-07-08T01:30:00;6.60;;;5.32;;
57778;SDS011;43608;49.486;9.640;2023-07-08T01:30:32;6.43;;;4.90;;
57778;SDS011;43608;49.486;9.640;2023-07-08T01:31:03;6.40;;;4.90;;
57778;SDS011;43608;49.486;9.640;2023-07-08T01:31:34;6.25;;;4.65;;
57778;SDS011;43608;49.486;9.640;2023-07-08T01:32:05;5.90;;;4.57;;
57778;SDS011;43608;49.486;9.640;2023-07-08T01:32:37;6.20;;;4.90;;
57778;SDS011;43608;49.486;9.640;2023-07-08T01:33:16;5.95;;;4.50;;
57778;SDS011;43608;49.486;9.640;2023-07-08T01:33:49;6.70;;;4.70;;
57778;SDS011;43608;49.486;9.640;2023-07-08T01:34:21;6.20;;;4.85;;
57778;SDS011;43608;49.486;9.640;2023-07-08T01:34:51;6.13;;;4.75;;
57778;SDS011;43608;49.486;9.640;2023-07-08T01:35:30;6.60;;;4.30;;
57778;SDS011;43608;49.486;9.640;2023-07-08T01:36:01;7.07;;;5.30;;
57778;SDS011;43608;49.486;9.640;2023-07-08T01:36:34;6.57;;;4.93;;
57778;SDS011;43608;49.486;9.640;2023-07-08T01:37:09;6.28;;;4.75;;
57778;SDS011;43608;49.486;9.640;2023-07-08T01:37:43;7.25;;;4.82;;
57778;SDS011;43608;49.486;9.640;2023-07-08T01:38:21;6.45;;;4.70;;
57778;SDS011;43608;49.486;9.640;2023-07-08T01:38:55;7.05;;;4.85;;
57778;SDS011;43608;49.486;9.640;2023-07-08T01:39:27;6.57;;;4.70;;
57778;SDS011;43608;49.486;9.640;2023-07-08T01:40:13;6.43;;;4.90;;
57778;SDS011;43608;49.486;9.640;2023-07-08T01:40:53;5.60;;;4.55;;
57778;SDS011;43608;49.486;9.640;2023-07-08T01:41:26;6.50;;;4.68;;
57778;SDS011;43608;49.486;9.640;2023-07-08T01:41:56;6.72;;;5.05;;
57778;SDS011;43608;49.486;9.640;2023-07-08T01:42:27;7.10;;;5.10;;
57778;SDS011;43608;49.486;9.640;2023-07-08T01:42:58;6.50;;;4.75;;
57778;SDS011;43608;49.486;9.640;2023-07-08T01:43:29;6.95;;;4.97;;
57778;SDS011;43608;49.486;9.640;2023-07-08T01:43:59;7.05;;;4.82;;
57778;SDS011;43608;49.486;9.640;2023-07-08T01:44:31;7.75;;;4.97;;
57778;SDS011;43608;49.486;9.640;2023-07-08T01:45:10;7.00;;;4.82;;
57778;SDS011;43608;49.486;9.640;2023-07-08T01:45:42;6.97;;;4.75;;
57778;SDS011;43608;49.486;9.640;2023-07-08T01:46:31;6.22;;;4.57;;
57778;SDS011;43608;49.486;9.640;2023-07-08T01:47:07;6.13;;;4.85;;
57778;SDS011;43608;49.486;9.640;2023-07-08T01:47:42;6.07;;;4.60;;
57778;SDS011;43608;49.486;9.640;2023-07-08T01:48:20;6.10;;;4.35;;
57778;SDS011;43608;49.486;9.640;2023-07-08T01:49:01;5.95;;;4.50;;
57778;SDS011;43608;49.486;9.640;2023-07-08T01:49:32;6.53;;;4.60;;
57778;SDS011;43608;49.486;9.640;2023-07-08T01:50:06;6.82;;;5.03;;
57778;SDS011;43608;49.486;9.640;2023-07-08T01:50:59;6.13;;;4.50;;
57778;SDS011;43608;49.486;9.640;2023-07-08T01:51:29;7.40;;;4.85;;
57778;SDS011;43608;49.486;9.640;2023-07-08T01:51:59;6.38;;;4.90;;
57778;SDS011;43608;49.486;9.640;2023-07-08T01:52:31;6.38;;;4.50;;
57778;SDS011;43608;49.486;9.640;2023-07-08T01:53:02;5.60;;;4.35;;
57778;SDS011;43608;49.486;9.640;2023-07-08T01:53:41;6.25;;;4.60;;
57778;SDS011;43608;49.486;9.640;2023-07-08T01:54:12;5.82;;;4.60;;
57778;SDS011;43608;49.486;9.640;2023-07-08T01:54:43;5.63;;;4.28;;
57778;SDS011;43608;49.486;9.640;2023-07-08T01:55:13;6.47;;;4.40;;
57778;SDS011;43608;49.486;9.640;2023-07-08T01:55:43;5.90;;;4.45;;
57778;SDS011;43608;49.486;9.640;2023-07-08T01:56:14;5.70;;;4.10;;
57778;SDS011;43608;49.486;9.640;2023-07-08T01:56:45;5.88;;;4.45;;
57778;SDS011;43608;49.486;9.640;2023-07-08T01:57:15;6.90;;;4.55;;
57778;SDS011;43608;49.486;9.640;2023-07-08T01:57:46;5.97;;;4.45;;
57778;SDS011;43608;49.486;9.640;2023-07-08T01:58:16;5.95;;;4.45;;
57778;SDS011;43608;49.486;9.640;2023-07-08T01:58:47;5.60;;;4.20;;
57778;SDS011;43608;49.486;9.640;2023-07-08T01:59:17;5.82;;;4.47;;
57778;SDS011;43608;49.486;9.640;2023-07-08T01:59:47;5.65;;;4.20;;
57778;SDS011;43608;49.486;9.640;2023-07-08T02:00:18;5.97;;;4.25;;
57778;SDS011;43608;49.486;9.640;2023-07-08T02:00:50;6.22;;;4.60;;
57778;SDS011;43608;49.486;9.640;2023-07-08T02:01:20;5.35;;;4.20;;
57778;SDS011;43608;49.486;9.640;2023-07-08T02:01:51;5.80;;;4.43;;
57778;SDS011;43608;49.486;9.640;2023-07-08T02:02:25;6.30;;;4.53;;
57778;SDS011;43608;49.486;9.640;2023-07-08T02:02:55;5.80;;;4.47;;
57778;SDS011;43608;49.486;9.640;2023-07-08T02:03:26;5.78;;;4.30;;
57778;SDS011;43608;49.486;9.640;2023-07-08T02:03:57;6.13;;;4.40;;
57778;SDS011;43608;49.486;9.640;2023-07-08T02:04:27;6.20;;;4.47;;
57778;SDS011;43608;49.486;9.640;2023-07-08T02:05:00;5.03;;;4.10;;
57778;SDS011;43608;49.486;9.640;2023-07-08T02:05:30;5.55;;;4.25;;
57778;SDS011;43608;49.486;9.640;2023-07-08T02:06:01;5.60;;;4.32;;
57778;SDS011;43608;49.486;9.640;2023-07-08T02:06:32;6.13;;;4.68;;
57778;SDS011;43608;49.486;9.640;2023-07-08T02:07:02;5.95;;;4.50;;
57778;SDS011;43608;49.486;9.640;2023-07-08T02:07:33;5.57;;;4.13;;
57778;SDS011;43608;49.486;9.640;2023-07-08T02:08:03;5.93;;;4.40;;
57778;SDS011;43608;49.486;9.640;2023-07-08T02:08:34;6.10;;;4.57;;
57778;SDS011;43608;49.486;9.640;2023-07-08T02:09:04;7.07;;;4.60;;
57778;SDS011;43608;49.486;9.640;2023-07-08T02:09:36;5.60;;;4.40;;
57778;SDS011;43608;49.486;9.640;2023-07-08T02:10:06;6.05;;;4.60;;
57778;SDS011;43608;49.486;9.640;2023-07-08T02:10:40;6.22;;;4.65;;
57778;SDS011;43608;49.486;9.640;2023-07-08T02:11:12;6.28;;;4.50;;
57778;SDS011;43608;49.486;9.640;2023-07-08T02:11:42;5.88;;;4.43;;
57778;SDS011;43608;49.486;9.640;2023-07-08T02:12:12;6.18;;;4.43;;
57778;SDS011;43608;49.486;9.640;2023-07-08T02:12:43;5.85;;;4.60;;
57778;SDS011;43608;49.486;9.640;2023-07-08T02:13:13;5.32;;;4.10;;
57778;SDS011;43608;49.486;9.640;2023-07-08T02:13:44;5.70;;;4.50;;
57778;SDS011;43608;49.486;9.640;2023-07-08T02:14:14;5.85;;;4.40;;
57778;SDS011;43608;49.486;9.640;2023-07-08T02:14:44;5.95;;;4.13;;
57778;SDS011;43608;49.486;9.640;2023-07-08T02:15:15;5.57;;;4.15;;
57778;SDS011;43608;49.486;9.640;2023-07-08T02:15:46;6.07;;;4.57;;
57778;SDS011;43608;49.486;9.640;2023-07-08T02:16:16;6.35;;;4.50;;
57778;SDS011;43608;49.486;9.640;2023-07-08T02:16:46;6.00;;;4.35;;
57778;SDS011;43608;49.486;9.640;2023-07-08T02:17:17;5.55;;;4.38;;
57778;SDS011;43608;49.486;9.640;2023-07-08T02:17:47;5.72;;;4.30;;
57778;SDS011;43608;49.486;9.640;2023-07-08T02:18:19;5.88;;;4.43;;
57778;SDS011;43608;49.486;9.640;2023-07-08T02:18:49;5.43;;;4.13;;
57778;SDS011;43608;49.486;9.640;2023-07-08T02:19:19;5.90;;;4.30;;
57778;SDS011;43608;49.486;9.640;2023-07-08T02:19:52;5.60;;;4.25;;
57778;SDS011;43608;49.486;9.640;2023-07-08T02:20:22;5.88;;;4.10;;
57778;SDS011;43608;49.486;9.640;2023-07-08T02:20:53;5.97;;;4.57;;
57778;SDS011;43608;49.486;9.640;2023-07-08T02:21:23;5.80;;;4.15;;
57778;SDS011;43608;49.486;9.640;2023-07-08T02:21:53;6.38;;;4.40;;
57778;SDS011;43608;49.486;9.640;2023-07-08T02:22:24;5.65;;;4.50;;
57778;SDS011;43608;49.486;9.640;2023-07-08T02:22:55;6.30;;;4.70;;
57778;SDS011;43608;49.486;9.640;2023-07-08T02:23:25;6.10;;;4.75;;
57778;SDS011;43608;49.486;9.640;2023-07-08T02:23:56;5.97;;;4.45;;
57778;SDS011;43608;49.486;9.640;2023-07-08T02:24:27;6.30;;;4.57;;
57778;SDS011;43608;49.486;9.640;2023-07-08T02:24:57;6.00;;;4.65;;
57778;SDS011;43608;49.486;9.640;2023-07-08T02:25:28;5.55;;;4.30;;
57778;SDS011;43608;49.486;9.640;2023-07-08T02:25:58;5.88;;;4.38;;
57778;SDS011;43608;49.486;9.640;2023-07-08T02:26:29;5.43;;;4.32;;
57778;SDS011;43608;49.486;9.640;2023-07-08T02:27:02;6.40;;;4.80;;
57778;SDS011;43608;49.486;9.640;2023-07-08T02:27:32;5.60;;;4.15;;
57778;SDS011;43608;49.486;9.640;2023-07-08T02:28:03;5.68;;;4.38;;
57778;SDS011;43608;49.486;9.640;2023-07-08T02:28:33;6.18;;;4.65;;
57778;SDS011;43608;49.486;9.640;2023-07-08T02:29:04;6.45;;;4.55;;
57778;SDS011;43608;49.486;9.640;2023-07-08T02:29:34;6.22;;;4.60;;
57778;SDS011;43608;49.486;9.640;2023-07-08T02:30:05;6.18;;;4.60;;
57778;SDS011;43608;49.486;9.640;2023-07-08T02:30:36;5.82;;;4.28;;
57778;SDS011;43608;49.486;9.640;2023-07-08T02:31:06;7.07;;;4.68;;
57778;SDS011;43608;49.486;9.640;2023-07-08T02:31:37;5.63;;;4.18;;
57778;SDS011;43608;49.486;9.640;2023-07-08T02:32:08;6.22;;;4.80;;
57778;SDS011;43608;49.486;9.640;2023-07-08T02:32:41;5.85;;;4.28;;
57778;SDS011;43608;49.486;9.640;2023-07-08T02:33:11;6.57;;;4.63;;
57778;SDS011;43608;49.486;9.640;2023-07-08T02:33:42;6.07;;;4.72;;
57778;SDS011;43608;49.486;9.640;2023-07-08T02:34:13;5.38;;;4.20;;
57778;SDS011;43608;49.486;9.640;2023-07-08T02:34:43;6.28;;;4.50;;
57778;SDS011;43608;49.486;9.640;2023-07-08T02:35:14;5.80;;;4.40;;
57778;SDS011;43608;49.486;9.640;2023-07-08T02:35:44;5.80;;;4.47;;
57778;SDS011;43608;49.486;9.640;2023-07-08T02:36:17;5.57;;;4.07;;
57778;SDS011;43608;49.486;9.640;2023-07-08T02:36:48;5.78;;;4.32;;
57778;SDS011;43608;49.486;9.640;2023-07-08T02:37:18;5.82;;;4.30;;
57778;SDS011;43608;49.486;9.640;2023-07-08T02:37:49;5.85;;;4.68;;
57778;SDS011;43608;49.486;9.640;2023-07-08T02:38:19;5.35;;;4.20;;
57778;SDS011;43608;49.486;9.640;2023-07-08T02:38:49;6.50;;;4.60;;
57778;SDS011;43608;49.486;9.640;2023-07-08T02:39:20;7.15;;;4.25;;
57778;SDS011;43608;49.486;9.640;2023-07-08T02:39:50;5.95;;;4.40;;
57778;SDS011;43608;49.486;9.640;2023-07-08T02:40:21;5.95;;;4.43;;
57778;SDS011;43608;49.486;9.640;2023-07-08T02:40:52;5.57;;;4.38;;
57778;SDS011;43608;49.486;9.640;2023-07-08T02:41:23;6.13;;;4.60;;
57778;SDS011;43608;49.486;9.640;2023-07-08T02:41:53;6.93;;;4.53;;
57778;SDS011;43608;49.486;9.640;2023-07-08T02:42:23;5.05;;;4.03;;
57778;SDS011;43608;49.486;9.640;2023-07-08T02:42:54;5.90;;;4.35;;
57778;SDS011;43608;49.486;9.640;2023-07-08T02:43:24;5.75;;;4.57;;
57778;SDS011;43608;49.486;9.640;2023-07-08T02:43:55;5.70;;;4.18;;
57778;SDS011;43608;49.486;9.640;2023-07-08T02:44:25;6.35;;;4.22;;
57778;SDS011;43608;49.486;9.640;2023-07-08T02:44:56;5.82;;;4.43;;
57778;SDS011;43608;49.486;9.640;2023-07-08T02:45:26;5.45;;;4.15;;
57778;SDS011;43608;49.486;9.640;2023-07-08T02:45:57;6.57;;;4.88;;
57778;SDS011;43608;49.486;9.640;2023-07-08T02:46:27;5.55;;;4.40;;
57778;SDS011;43608;49.486;9.640;2023-07-08T02:46:58;6.63;;;4.68;;
57778;SDS011;43608;49.486;9.640;2023-07-08T02:47:28;6.20;;;4.20;;
57778;SDS011;43608;49.486;9.640;2023-07-08T02:47:58;5.75;;;4.22;;
57778;SDS011;43608;49.486;9.640;2023-07-08T02:48:29;6.18;;;4.50;;
57778;SDS011;43608;49.486;9.640;2023-07-08T02:48:59;5.60;;;4.20;;
57778;SDS011;43608;49.486;9.640;2023-07-08T02:49:29;6.32;;;4.70;;
57778;SDS011;43608;49.486;9.640;2023-07-08T02:50:00;6.03;;;4.60;;
57778;SDS011;43608;49.486;9.640;2023-07-08T02:50:30;6.07;;;4.30;;
57778;SDS011;43608;49.486;9.640;2023-07-08T02:51:04;5.57;;;4.32;;
57778;SDS011;43608;49.486;9.640;2023-07-08T02:51:35;5.70;;;4.18;;
57778;SDS011;43608;49.486;9.640;2023-07-08T02:52:06;5.43;;;4.10;;
57778;SDS011;43608;49.486;9.640;2023-07-08T02:52:36;5.72;;;4.18;;
57778;SDS011;43608;49.486;9.640;2023-07-08T02:53:07;5.88;;;4.10;;
57778;SDS011;43608;49.486;9.640;2023-07-08T02:53:37;6.03;;;4.25;;
57778;SDS011;43608;49.486;9.640;2023-07-08T02:54:08;5.60;;;4.40;;
57778;SDS011;43608;49.486;9.640;2023-07-08T02:54:38;5.65;;;4.10;;
57778;SDS011;43608;49.486;9.640;2023-07-08T02:55:08;5.40;;;3.90;;
57778;SDS011;43608;49.486;9.640;2023-07-08T02:55:39;5.15;;;3.90;;
57778;SDS011;43608;49.486;9.640;2023-07-08T02:56:12;5.38;;;4.25;;
57778;SDS011;43608;49.486;9.640;2023-07-08T02:56:42;5.93;;;4.03;;
57778;SDS011;43608;49.486;9.640;2023-07-08T02:57:13;5.07;;;4.18;;
57778;SDS011;43608;49.486;9.640;2023-07-08T02:57:43;5.47;;;4.10;;
57778;SDS011;43608;49.486;9.640;2023-07-08T02:58:14;5.22;;;3.92;;
57778;SDS011;43608;49.486;9.640;2023-07-08T02:58:44;5.43;;;4.20;;
57778;SDS011;43608;49.486;9.640;2023-07-08T02:59:14;6.10;;;4.20;;
57778;SDS011;43608;49.486;9.640;2023-07-08T02:59:45;6.10;;;4.13;;
57778;SDS011;43608;49.486;9.640;2023-07-08T03:00:15;6.28;;;4.40;;
57778;SDS011;43608;49.486;9.640;2023-07-08T03:00:45;5.43;;;4.07;;
57778;SDS011;43608;49.486;9.640;2023-07-08T03:01:21;5.53;;;3.90;;
57778;SDS011;43608;49.486;9.640;2023-07-08T03:01:51;5.93;;;4.20;;
57778;SDS011;43608;49.486;9.640;2023-07-08T03:02:22;5.40;;;4.28;;
57778;SDS011;43608;49.486;9.640;2023-07-08T03:02:53;5.60;;;4.38;;
57778;SDS011;43608;49.486;9.640;2023-07-08T03:03:23;5.63;;;4.03;;
57778;SDS011;43608;49.486;9.640;2023-07-08T03:03:53;4.90;;;3.75;;
57778;SDS011;43608;49.486;9.640;2023-07-08T03:04:28;6.13;;;4.07;;
57778;SDS011;43608;49.486;9.640;2023-07-08T03:05:00;4.93;;;3.90;;
57778;SDS011;43608;49.486;9.640;2023-07-08T03:05:31;4.78;;;3.70;;
57778;SDS011;43608;49.486;9.640;2023-07-08T03:06:02;5.78;;;3.85;;
57778;SDS011;43608;49.486;9.640;2023-07-08T03:06:35;5.07;;;3.90;;
57778;SDS011;43608;49.486;9.640;2023-07-08T03:07:07;5.22;;;3.80;;
57778;SDS011;43608;49.486;9.640;2023-07-08T03:07:41;5.55;;;4.07;;
57778;SDS011;43608;49.486;9.640;2023-07-08T03:08:12;5.82;;;4.00;;
57778;SDS011;43608;49.486;9.640;2023-07-08T03:08:42;5.20;;;3.78;;
57778;SDS011;43608;49.486;9.640;2023-07-08T03:09:12;4.78;;;3.65;;
57778;SDS011;43608;49.486;9.640;2023-07-08T03:09:43;5.18;;;4.18;;
57778;SDS011;43608;49.486;9.640;2023-07-08T03:10:13;5.22;;;3.75;;
57778;SDS011;43608;49.486;9.640;2023-07-08T03:10:46;5.43;;;3.72;;
57778;SDS011;43608;49.486;9.640;2023-07-08T03:11:18;5.00;;;3.88;;
57778;SDS011;43608;49.486;9.640;2023-07-08T03:11:49;5.47;;;3.97;;
57778;SDS011;43608;49.486;9.640;2023-07-08T03:12:19;5.55;;;4.00;;
57778;SDS011;43608;49.486;9.640;2023-07-08T03:12:49;5.57;;;4.10;;
57778;SDS011;43608;49.486;9.640;2023-07-08T03:13:20;5.28;;;3.90;;
57778;SDS011;43608;49.486;9.640;2023-07-08T03:13:50;5.35;;;3.83;;
57778;SDS011;43608;49.486;9.640;2023-07-08T03:14:20;5.35;;;4.07;;
57778;SDS011;43608;49.486;9.640;2023-07-08T03:14:51;6.40;;;3.95;;
57778;SDS011;43608;49.486;9.640;2023-07-08T03:15:21;6.55;;;4.43;;
57778;SDS011;43608;49.486;9.640;2023-07-08T03:15:52;6.13;;;4.43;;
57778;SDS011;43608;49.486;9.640;2023-07-08T03:16:24;4.72;;;3.63;;
57778;SDS011;43608;49.486;9.640;2023-07-08T03:16:54;6.00;;;4.35;;
57778;SDS011;43608;49.486;9.640;2023-07-08T03:17:25;5.03;;;4.00;;
57778;SDS011;43608;49.486;9.640;2023-07-08T03:17:55;5.80;;;4.28;;